sensor_id;sensor_type;location;lat;lon;timestamp;pressure;altitude;pressure_sealevel;temperature;humidity
8334;BME280;4204;43.004;23.052;2023-05-29T00:02:08;93605.03;;;14.23;100.00
8334;BME280;4204;43.004;23.052;2023-05-29T00:04:35;93602.06;;;14.12;100.00
8334;BME280;4204;43.004;23.052;2023-05-29T00:07:04;93605.63;;;14.16;100.00
8334;BME280;4204;43.004;23.052;2023-05-29T00:09:32;93589.31;;;14.33;100.00
8334;BME280;4204;43.004;23.052;2023-05-29T00:12:00;93602.72;;;14.21;100.00
8334;BME280;4204;43.004;23.052;2023-05-29T00:14:28;93607.03;;;13.98;100.00
8334;BME280;4204;43.004;23.052;2023-05-29T00:16:56;93600.91;;;13.86;100.00
8334;BME280;4204;43.004;23.052;2023-05-29T00:19:25;93598.34;;;13.89;100.00
8334;BME280;4204;43.004;23.052;2023-05-29T00:21:53;93591.44;;;13.88;100.00
8334;BME280;4204;43.004;23.052;2023-05-29T00:24:21;93591.19;;;13.93;100.00
8334;BME280;4204;43.004;23.052;2023-05-29T00:26:49;93599.44;;;14.00;100.00
8334;BME280;4204;43.004;23.052;2023-05-29T00:29:17;93604.78;;;14.00;100.00
8334;BME280;4204;43.004;23.052;2023-05-29T00:31:44;93611.59;;;13.98;100.00
8334;BME280;4204;43.004;23.052;2023-05-29T00:34:12;93614.66;;;14.12;100.00
8334;BME280;4204;43.004;23.052;2023-05-29T00:36:41;93612.91;;;14.04;100.00
8334;BME280;4204;43.004;23.052;2023-05-29T00:39:09;93600.31;;;14.04;100.00
8334;BME280;4204;43.004;23.052;2023-05-29T00:41:37;93606.28;;;13.86;100.00
8334;BME280;4204;43.004;23.052;2023-05-29T00:44:04;93599.47;;;13.76;100.00
8334;BME280;4204;43.004;23.052;2023-05-29T00:46:33;93596.41;;;13.50;100.00
8334;BME280;4204;43.004;23.052;2023-05-29T00:49:01;93597.66;;;13.40;100.00
8334;BME280;4204;43.004;23.052;2023-05-29T00:51:29;93586.72;;;13.45;100.00
8334;BME280;4204;43.004;23.052;2023-05-29T00:53:59;93595.72;;;13.65;100.00
8334;BME280;4204;43.004;23.052;2023-05-29T00:56:27;93590.38;;;13.65;100.00
8334;BME280;4204;43.004;23.052;2023-05-29T00:58:55;93604.75;;;13.60;100.00
8334;BME280;4204;43.004;23.052;2023-05-29T01:01:22;93601.72;;;13.74;100.00
8334;BME280;4204;43.004;23.052;2023-05-29T01:03:51;93611.97;;;13.72;100.00
8334;BME280;4204;43.004;23.052;2023-05-29T01:06:21;93604.31;;;13.34;100.00
8334;BME280;4204;43.004;23.052;2023-05-29T01:08:49;93603.53;;;13.34;100.00
8334;BME280;4204;43.004;23.052;2023-05-29T01:11:24;93594.72;;;13.57;100.00
8334;BME280;4204;43.004;23.052;2023-05-29T01:13:57;93596.50;;;13.65;100.00
8334;BME280;4204;43.004;23.052;2023-05-29T01:16:33;93588.47;;;13.77;100.00
8334;BME280;4204;43.004;23.052;2023-05-29T01:19:10;93603.72;;;13.77;100.00
8334;BME280;4204;43.004;23.052;2023-05-29T01:21:54;93601.28;;;13.84;100.00
8334;BME280;4204;43.004;23.052;2023-05-29T01:24:32;93601.06;;;13.65;100.00
8334;BME280;4204;43.004;23.052;2023-05-29T01:27:07;93596.03;;;13.75;100.00
8334;BME280;4204;43.004;23.052;2023-05-29T01:29:56;93598.59;;;13.84;100.00
8334;BME280;4204;43.004;23.052;2023-05-29T01:32:29;93592.78;;;13.94;100.00
8334;BME280;4204;43.004;23.052;2023-05-29T01:34:57;93600.44;;;13.96;100.00
8334;BME280;4204;43.004;23.052;2023-05-29T01:37:24;93597.41;;;13.69;100.00
8334;BME280;4204;43.004;23.052;2023-05-29T01:39:56;93598.53;;;13.56;100.00
8334;BME280;4204;43.004;23.052;2023-05-29T01:42:27;93598.72;;;13.75;100.00
8334;BME280;4204;43.004;23.052;2023-05-29T01:44:55;93593.47;;;13.79;100.00
8334;BME280;4204;43.004;23.052;2023-05-29T01:47:24;93590.13;;;13.82;100.00
8334;BME280;4204;43.004;23.052;2023-05-29T01:49:52;93593.69;;;13.86;100.00
8334;BME280;4204;43.004;23.052;2023-05-29T01:52:21;93597.19;;;13.50;100.00
8334;BME280;4204;43.004;23.052;2023-05-29T01:54:49;93583.06;;;13.26;100.00
8334;BME280;4204;43.004;23.052;2023-05-29T01:57:17;93580.03;;;13.39;100.00
8334;BME280;4204;43.004;23.052;2023-05-29T01:59:47;93571.69;;;13.53;100.00
8334;BME280;4204;43.004;23.052;2023-05-29T02:02:15;93573.59;;;13.52;100.00
8334;BME280;4204;43.004;23.052;2023-05-29T02:04:43;93577.59;;;13.46;100.00
8334;BME280;4204;43.004;23.052;2023-05-29T02:07:10;93570.03;;;13.36;100.00
8334;BME280;4204;43.004;23.052;2023-05-29T02:09:38;93571.25;;;13.27;100.00
8334;BME280;4204;43.004;23.052;2023-05-29T02:12:06;93574.72;;;13.27;100.00
8334;BME280;4204;43.004;23.052;2023-05-29T02:14:34;93586.97;;;13.28;100.00
8334;BME280;4204;43.004;23.052;2023-05-29T02:17:04;93582.81;;;13.55;100.00
8334;BME280;4204;43.004;23.052;2023-05-29T02:19:32;93597.81;;;13.59;100.00
8334;BME280;4204;43.004;23.052;2023-05-29T02:22:00;93579.94;;;13.36;100.00
8334;BME280;4204;43.004;23.052;2023-05-29T02:24:29;93591.47;;;13.03;100.00
8334;BME280;4204;43.004;23.052;2023-05-29T02:26:58;93582.63;;;13.12;100.00
8334;BME280;4204;43.004;23.052;2023-05-29T02:29:25;93590.75;;;13.27;100.00
8334;BME280;4204;43.004;23.052;2023-05-29T02:31:54;93594.19;;;13.16;100.00
8334;BME280;4204;43.004;23.052;2023-05-29T02:34:23;93601.31;;;13.24;100.00
8334;BME280;4204;43.004;23.052;2023-05-29T02:36:51;93586.19;;;13.28;100.00
8334;BME280;4204;43.004;23.052;2023-05-29T02:39:19;93585.84;;;13.41;100.00
8334;BME280;4204;43.004;23.052;2023-05-29T02:41:46;93588.72;;;13.12;100.00
8334;BME280;4204;43.004;23.052;2023-05-29T02:44:14;93590.84;;;13.07;100.00
8334;BME280;4204;43.004;23.052;2023-05-29T02:46:42;93591.38;;;13.00;100.00
8334;BME280;4204;43.004;23.052;2023-05-29T02:49:09;93593.03;;;12.80;100.00
8334;BME280;4204;43.004;23.052;2023-05-29T02:51:39;93591.69;;;12.74;100.00
8334;BME280;4204;43.004;23.052;2023-05-29T02:54:06;93587.09;;;12.63;100.00
8334;BME280;4204;43.004;23.052;2023-05-29T02:56:34;93590.72;;;12.46;100.00
8334;BME280;4204;43.004;23.052;2023-05-29T02:59:02;93602.75;;;12.64;100.00
8334;BME280;4204;43.004;23.052;2023-05-29T03:01:30;93600.34;;;12.71;100.00
8334;BME280;4204;43.004;23.052;2023-05-29T03:03:59;93601.25;;;12.99;100.00
8334;BME280;4204;43.004;23.052;2023-05-29T03:06:27;93598.88;;;13.19;100.00
8334;BME280;4204;43.004;23.052;2023-05-29T03:08:56;93599.19;;;13.29;100.00
8334;BME280;4204;43.004;23.052;2023-05-29T03:11:25;93602.75;;;13.21;100.00
8334;BME280;4204;43.004;23.052;2023-05-29T03:13:55;93601.63;;;13.22;100.00
8334;BME280;4204;43.004;23.052;2023-05-29T03:16:22;93601.09;;;13.29;100.00
8334;BME280;4204;43.004;23.052;2023-05-29T03:18:50;93599.66;;;13.31;100.00
8334;BME280;4204;43.004;23.052;2023-05-29T03:21:20;93596.97;;;13.31;100.00
8334;BME280;4204;43.004;23.052;2023-05-29T03:23:48;93599.31;;;13.33;100.00
8334;BME280;4204;43.004;23.052;2023-05-29T03:26:17;93595.06;;;13.44;100.00
8334;BME280;4204;43.004;23.052;2023-05-29T03:28:45;93601.66;;;13.46;100.00
8334;BME280;4204;43.004;23.052;2023-05-29T03:31:13;93606.22;;;13.46;100.00
8334;BME280;4204;43.004;23.052;2023-05-29T03:33:40;93602.06;;;13.60;100.00
8334;BME280;4204;43.004;23.052;2023-05-29T03:36:28;93598.97;;;13.58;100.00
8334;BME280;4204;43.004;23.052;2023-05-29T03:38:58;93603.53;;;13.58;100.00
8334;BME280;4204;43.004;23.052;2023-05-29T03:41:27;93604.63;;;13.69;100.00
8334;BME280;4204;43.004;23.052;2023-05-29T03:43:55;93600.50;;;13.71;100.00
8334;BME280;4204;43.004;23.052;2023-05-29T03:46:26;93601.16;;;13.68;100.00
8334;BME280;4204;43.004;23.052;2023-05-29T03:48:54;93609.06;;;13.77;100.00
8334;BME280;4204;43.004;23.052;2023-05-29T03:51:22;93609.50;;;13.79;100.00
8334;BME280;4204;43.004;23.052;2023-05-29T03:53:51;93616.44;;;13.80;100.00
8334;BME280;4204;43.004;23.052;2023-05-29T03:56:19;93611.06;;;13.92;100.00
8334;BME280;4204;43.004;23.052;2023-05-29T03:58:49;93613.69;;;14.04;100.00
8334;BME280;4204;43.004;23.052;2023-05-29T04:01:18;93617.59;;;13.95;100.00
8334;BME280;4204;43.004;23.052;2023-05-29T04:03:45;93620.84;;;14.00;100.00
8334;BME280;4204;43.004;23.052;2023-05-29T04:06:14;93626.63;;;14.02;100.00
8334;BME280;4204;43.004;23.052;2023-05-29T04:08:42;93628.84;;;14.00;100.00
8334;BME280;4204;43.004;23.052;2023-05-29T04:11:10;93615.13;;;14.02;100.00
8334;BME280;4204;43.004;23.052;2023-05-29T04:13:39;93622.16;;;14.06;100.00
8334;BME280;4204;43.004;23.052;2023-05-29T04:16:09;93629.69;;;14.16;100.00
8334;BME280;4204;43.004;23.052;2023-05-29T04:18:38;93633.72;;;14.10;100.00
8334;BME280;4204;43.004;23.052;2023-05-29T04:21:05;93633.72;;;14.10;100.00
8334;BME280;4204;43.004;23.052;2023-05-29T04:23:33;93624.91;;;14.10;100.00
8334;BME280;4204;43.004;23.052;2023-05-29T04:26:02;93630.63;;;14.08;100.00
8334;BME280;4204;43.004;23.052;2023-05-29T04:28:32;93632.59;;;14.11;100.00
8334;BME280;4204;43.004;23.052;2023-05-29T04:31:00;93634.25;;;14.16;100.00
8334;BME280;4204;43.004;23.052;2023-05-29T04:33:30;93628.13;;;14.27;100.00
8334;BME280;4204;43.004;23.052;2023-05-29T04:35:59;93636.00;;;14.24;100.00
8334;BME280;4204;43.004;23.052;2023-05-29T04:38:30;93631.88;;;14.26;100.00
8334;BME280;4204;43.004;23.052;2023-05-29T04:40:58;93624.78;;;14.30;100.00
8334;BME280;4204;43.004;23.052;2023-05-29T04:43:28;93639.16;;;14.38;100.00
8334;BME280;4204;43.004;23.052;2023-05-29T04:46:00;93637.56;;;14.37;100.00
8334;BME280;4204;43.004;23.052;2023-05-29T04:48:30;93633.88;;;14.41;100.00
8334;BME280;4204;43.004;23.052;2023-05-29T04:50:58;93638.34;;;14.37;100.00
8334;BME280;4204;43.004;23.052;2023-05-29T04:53:26;93636.03;;;14.36;100.00
8334;BME280;4204;43.004;23.052;2023-05-29T04:55:54;93646.91;;;14.43;100.00
8334;BME280;4204;43.004;23.052;2023-05-29T04:58:24;93646.25;;;14.46;100.00
8334;BME280;4204;43.004;23.052;2023-05-29T05:00:51;93653.66;;;14.52;100.00
8334;BME280;4204;43.004;23.052;2023-05-29T05:03:19;93638.00;;;14.39;100.00
8334;BME280;4204;43.004;23.052;2023-05-29T05:05:49;93654.94;;;14.71;100.00
8334;BME280;4204;43.004;23.052;2023-05-29T05:08:17;93655.13;;;14.78;100.00
8334;BME280;4204;43.004;23.052;2023-05-29T05:10:45;93660.03;;;14.76;100.00
8334;BME280;4204;43.004;23.052;2023-05-29T05:13:13;93662.88;;;14.67;100.00
8334;BME280;4204;43.004;23.052;2023-05-29T05:15:41;93671.81;;;14.59;100.00
8334;BME280;4204;43.004;23.052;2023-05-29T05:18:09;93671.72;;;14.55;100.00
8334;BME280;4204;43.004;23.052;2023-05-29T05:20:38;93679.53;;;14.61;100.00
8334;BME280;4204;43.004;23.052;2023-05-29T05:23:07;93686.72;;;14.72;100.00
8334;BME280;4204;43.004;23.052;2023-05-29T05:25:35;93690.41;;;14.68;100.00
8334;BME280;4204;43.004;23.052;2023-05-29T05:28:03;93695.88;;;14.71;100.00
8334;BME280;4204;43.004;23.052;2023-05-29T05:30:32;93696.78;;;14.75;100.00
8334;BME280;4204;43.004;23.052;2023-05-29T05:33:00;93696.84;;;14.79;100.00
8334;BME280;4204;43.004;23.052;2023-05-29T05:35:27;93692.59;;;14.78;100.00
8334;BME280;4204;43.004;23.052;2023-05-29T05:37:55;93696.50;;;14.80;100.00
8334;BME280;4204;43.004;23.052;2023-05-29T05:40:27;93704.47;;;14.92;100.00
8334;BME280;4204;43.004;23.052;2023-05-29T05:43:03;93697.91;;;14.90;100.00
8334;BME280;4204;43.004;23.052;2023-05-29T05:45:57;93692.91;;;14.88;100.00
8334;BME280;4204;43.004;23.052;2023-05-29T05:48:25;93694.75;;;15.00;100.00
8334;BME280;4204;43.004;23.052;2023-05-29T05:50:53;93704.03;;;15.18;100.00
8334;BME280;4204;43.004;23.052;2023-05-29T05:53:20;93693.47;;;15.09;100.00
8334;BME280;4204;43.004;23.052;2023-05-29T05:55:49;93702.28;;;15.10;100.00
8334;BME280;4204;43.004;23.052;2023-05-29T05:58:17;93692.25;;;15.07;100.00
8334;BME280;4204;43.004;23.052;2023-05-29T06:00:45;93695.94;;;15.02;100.00
8334;BME280;4204;43.004;23.052;2023-05-29T06:03:13;93700.44;;;14.98;100.00
8334;BME280;4204;43.004;23.052;2023-05-29T06:05:56;93698.09;;;14.97;100.00
8334;BME280;4204;43.004;23.052;2023-05-29T06:08:24;93703.72;;;14.92;100.00
8334;BME280;4204;43.004;23.052;2023-05-29T06:10:54;93712.81;;;15.03;100.00
8334;BME280;4204;43.004;23.052;2023-05-29T06:13:22;93708.72;;;14.93;100.00
8334;BME280;4204;43.004;23.052;2023-05-29T06:15:55;93721.72;;;15.07;100.00
8334;BME280;4204;43.004;23.052;2023-05-29T06:18:23;93721.72;;;15.07;100.00
8334;BME280;4204;43.004;23.052;2023-05-29T06:20:51;93719.03;;;15.07;100.00
8334;BME280;4204;43.004;23.052;2023-05-29T06:23:18;93729.50;;;15.12;100.00
8334;BME280;4204;43.004;23.052;2023-05-29T06:25:47;93723.31;;;15.23;100.00
8334;BME280;4204;43.004;23.052;2023-05-29T06:28:17;93730.06;;;15.33;100.00
8334;BME280;4204;43.004;23.052;2023-05-29T06:30:44;93730.06;;;15.33;100.00
8334;BME280;4204;43.004;23.052;2023-05-29T06:33:12;93730.41;;;15.31;100.00
8334;BME280;4204;43.004;23.052;2023-05-29T06:35:41;93723.34;;;15.39;100.00
8334;BME280;4204;43.004;23.052;2023-05-29T06:38:09;93730.94;;;15.37;100.00
8334;BME280;4204;43.004;23.052;2023-05-29T06:40:37;93733.88;;;15.32;100.00
8334;BME280;4204;43.004;23.052;2023-05-29T06:43:05;93727.91;;;15.38;100.00
8334;BME280;4204;43.004;23.052;2023-05-29T06:45:42;93729.75;;;15.50;100.00
8334;BME280;4204;43.004;23.052;2023-05-29T06:48:10;93733.31;;;15.54;100.00
8334;BME280;4204;43.004;23.052;2023-05-29T06:50:40;93732.03;;;15.64;100.00
8334;BME280;4204;43.004;23.052;2023-05-29T06:53:30;93729.44;;;15.67;100.00
8334;BME280;4204;43.004;23.052;2023-05-29T06:56:03;93724.06;;;15.67;100.00
8334;BME280;4204;43.004;23.052;2023-05-29T06:58:34;93729.34;;;15.79;100.00
8334;BME280;4204;43.004;23.052;2023-05-29T07:01:03;93723.53;;;15.93;100.00
8334;BME280;4204;43.004;23.052;2023-05-29T07:03:52;93721.47;;;15.86;100.00
8334;BME280;4204;43.004;23.052;2023-05-29T07:06:20;93732.16;;;16.02;100.00
8334;BME280;4204;43.004;23.052;2023-05-29T07:08:48;93729.84;;;16.00;100.00
8334;BME280;4204;43.004;23.052;2023-05-29T07:11:17;93724.97;;;16.06;100.00
8334;BME280;4204;43.004;23.052;2023-05-29T07:13:45;93734.59;;;16.07;100.00
8334;BME280;4204;43.004;23.052;2023-05-29T07:16:16;93735.09;;;16.12;100.00
8334;BME280;4204;43.004;23.052;2023-05-29T07:18:46;93711.56;;;16.06;100.00
8334;BME280;4204;43.004;23.052;2023-05-29T07:21:14;93723.94;;;16.26;100.00
8334;BME280;4204;43.004;23.052;2023-05-29T07:23:42;93732.06;;;16.30;100.00
8334;BME280;4204;43.004;23.052;2023-05-29T07:26:10;93721.81;;;16.35;100.00
8334;BME280;4204;43.004;23.052;2023-05-29T07:28:39;93724.72;;;16.46;100.00
8334;BME280;4204;43.004;23.052;2023-05-29T07:31:07;93729.66;;;16.59;100.00
8334;BME280;4204;43.004;23.052;2023-05-29T07:33:36;93729.16;;;16.73;100.00
8334;BME280;4204;43.004;23.052;2023-05-29T07:36:04;93725.34;;;16.74;100.00
8334;BME280;4204;43.004;23.052;2023-05-29T07:38:32;93720.28;;;16.88;100.00
8334;BME280;4204;43.004;23.052;2023-05-29T07:41:00;93717.38;;;16.96;100.00
8334;BME280;4204;43.004;23.052;2023-05-29T07:43:33;93724.94;;;17.10;100.00
8334;BME280;4204;43.004;23.052;2023-05-29T07:46:05;93724.72;;;17.19;100.00
8334;BME280;4204;43.004;23.052;2023-05-29T07:48:36;93723.16;;;17.40;100.00
8334;BME280;4204;43.004;23.052;2023-05-29T07:51:05;93730.06;;;17.38;100.00
8334;BME280;4204;43.004;23.052;2023-05-29T07:53:38;93728.81;;;17.32;100.00
8334;BME280;4204;43.004;23.052;2023-05-29T07:56:07;93732.81;;;17.41;100.00
8334;BME280;4204;43.004;23.052;2023-05-29T07:58:34;93731.31;;;17.44;100.00
8334;BME280;4204;43.004;23.052;2023-05-29T08:01:02;93723.06;;;17.52;100.00
8334;BME280;4204;43.004;23.052;2023-05-29T08:03:31;93726.22;;;17.58;100.00
8334;BME280;4204;43.004;23.052;2023-05-29T08:06:30;93734.25;;;17.77;100.00
8334;BME280;4204;43.004;23.052;2023-05-29T08:08:59;93738.09;;;17.79;100.00
8334;BME280;4204;43.004;23.052;2023-05-29T08:11:28;93731.19;;;17.78;100.00
8334;BME280;4204;43.004;23.052;2023-05-29T08:13:56;93726.75;;;17.90;100.00
8334;BME280;4204;43.004;23.052;2023-05-29T08:16:24;93728.47;;;18.01;100.00
8334;BME280;4204;43.004;23.052;2023-05-29T08:18:53;93725.06;;;18.04;100.00
8334;BME280;4204;43.004;23.052;2023-05-29T08:21:21;93728.38;;;18.20;100.00
8334;BME280;4204;43.004;23.052;2023-05-29T08:23:50;93724.66;;;18.28;100.00
8334;BME280;4204;43.004;23.052;2023-05-29T08:26:18;93722.84;;;18.36;100.00
8334;BME280;4204;43.004;23.052;2023-05-29T08:28:46;93730.63;;;18.41;100.00
8334;BME280;4204;43.004;23.052;2023-05-29T08:31:13;93722.75;;;18.55;100.00
8334;BME280;4204;43.004;23.052;2023-05-29T08:33:41;93730.94;;;18.62;100.00
8334;BME280;4204;43.004;23.052;2023-05-29T08:36:09;93722.91;;;18.66;100.00
8334;BME280;4204;43.004;23.052;2023-05-29T08:38:37;93719.28;;;18.84;100.00
8334;BME280;4204;43.004;23.052;2023-05-29T08:41:07;93717.31;;;18.81;100.00
8334;BME280;4204;43.004;23.052;2023-05-29T08:43:35;93717.66;;;18.76;100.00
8334;BME280;4204;43.004;23.052;2023-05-29T08:46:05;93719.31;;;18.88;100.00
8334;BME280;4204;43.004;23.052;2023-05-29T08:48:37;93713.41;;;19.08;100.00
8334;BME280;4204;43.004;23.052;2023-05-29T08:51:07;93723.66;;;18.96;100.00
8334;BME280;4204;43.004;23.052;2023-05-29T08:53:37;93708.38;;;19.03;100.00
8334;BME280;4204;43.004;23.052;2023-05-29T08:56:06;93716.63;;;19.21;100.00
8334;BME280;4204;43.004;23.052;2023-05-29T08:58:34;93724.41;;;19.26;100.00
8334;BME280;4204;43.004;23.052;2023-05-29T09:01:02;93715.53;;;19.25;100.00
8334;BME280;4204;43.004;23.052;2023-05-29T09:03:30;93715.19;;;19.30;100.00
8334;BME280;4204;43.004;23.052;2023-05-29T09:05:58;93705.69;;;19.37;100.00
8334;BME280;4204;43.004;23.052;2023-05-29T09:08:26;93709.59;;;19.43;100.00
8334;BME280;4204;43.004;23.052;2023-05-29T09:10:54;93707.66;;;19.43;100.00
8334;BME280;4204;43.004;23.052;2023-05-29T09:13:24;93703.16;;;19.58;100.00
8334;BME280;4204;43.004;23.052;2023-05-29T09:15:57;93707.13;;;19.67;100.00
8334;BME280;4204;43.004;23.052;2023-05-29T09:18:28;93694.84;;;19.73;100.00
8334;BME280;4204;43.004;23.052;2023-05-29T09:20:57;93696.06;;;19.79;100.00
8334;BME280;4204;43.004;23.052;2023-05-29T09:23:26;93695.38;;;19.93;100.00
8334;BME280;4204;43.004;23.052;2023-05-29T09:25:53;93678.44;;;19.96;100.00
8334;BME280;4204;43.004;23.052;2023-05-29T09:28:21;93694.06;;;20.20;100.00
8334;BME280;4204;43.004;23.052;2023-05-29T09:30:53;93689.94;;;20.33;100.00
8334;BME280;4204;43.004;23.052;2023-05-29T09:33:46;93681.91;;;20.47;100.00
8334;BME280;4204;43.004;23.052;2023-05-29T09:36:19;93687.78;;;20.63;100.00
8334;BME280;4204;43.004;23.052;2023-05-29T09:38:48;93684.66;;;20.54;100.00
8334;BME280;4204;43.004;23.052;2023-05-29T09:41:21;93683.47;;;20.55;100.00
8334;BME280;4204;43.004;23.052;2023-05-29T09:43:50;93691.97;;;20.50;100.00
8334;BME280;4204;43.004;23.052;2023-05-29T09:46:21;93694.28;;;20.55;100.00
8334;BME280;4204;43.004;23.052;2023-05-29T09:48:48;93685.69;;;20.36;100.00
8334;BME280;4204;43.004;23.052;2023-05-29T09:51:20;93683.00;;;20.39;100.00
8334;BME280;4204;43.004;23.052;2023-05-29T09:53:49;93685.72;;;20.39;100.00
8334;BME280;4204;43.004;23.052;2023-05-29T09:56:17;93679.72;;;20.70;100.00
8334;BME280;4204;43.004;23.052;2023-05-29T09:58:45;93663.94;;;20.79;100.00
8334;BME280;4204;43.004;23.052;2023-05-29T10:01:14;93662.72;;;20.70;100.00
8334;BME280;4204;43.004;23.052;2023-05-29T10:03:44;93670.91;;;20.91;100.00
8334;BME280;4204;43.004;23.052;2023-05-29T10:06:16;93671.78;;;21.13;100.00
8334;BME280;4204;43.004;23.052;2023-05-29T10:08:46;93671.84;;;21.27;100.00
8334;BME280;4204;43.004;23.052;2023-05-29T10:11:18;93671.81;;;21.20;100.00
8334;BME280;4204;43.004;23.052;2023-05-29T10:13:51;93674.09;;;21.11;100.00
8334;BME280;4204;43.004;23.052;2023-05-29T10:16:21;93675.28;;;21.24;100.00
8334;BME280;4204;43.004;23.052;2023-05-29T10:18:54;93682.31;;;21.39;100.00
8334;BME280;4204;43.004;23.052;2023-05-29T10:21:25;93670.34;;;21.61;100.00
8334;BME280;4204;43.004;23.052;2023-05-29T10:23:54;93675.38;;;21.73;100.00
8334;BME280;4204;43.004;23.052;2023-05-29T10:26:25;93673.84;;;21.79;100.00
8334;BME280;4204;43.004;23.052;2023-05-29T10:29:00;93677.34;;;22.04;100.00
8334;BME280;4204;43.004;23.052;2023-05-29T10:31:35;93668.03;;;22.26;100.00
8334;BME280;4204;43.004;23.052;2023-05-29T10:34:18;93673.06;;;22.35;100.00
8334;BME280;4204;43.004;23.052;2023-05-29T10:36:54;93683.50;;;22.50;100.00
8334;BME280;4204;43.004;23.052;2023-05-29T10:39:23;93678.13;;;21.87;100.00
8334;BME280;4204;43.004;23.052;2023-05-29T10:41:51;93687.38;;;21.58;100.00
8334;BME280;4204;43.004;23.052;2023-05-29T10:44:41;93681.78;;;21.02;100.00
8334;BME280;4204;43.004;23.052;2023-05-29T10:47:09;93680.53;;;20.81;100.00
8334;BME280;4204;43.004;23.052;2023-05-29T10:49:49;93672.00;;;20.69;100.00
8334;BME280;4204;43.004;23.052;2023-05-29T10:52:18;93672.69;;;20.55;100.00
8334;BME280;4204;43.004;23.052;2023-05-29T10:54:52;93671.88;;;20.44;100.00
8334;BME280;4204;43.004;23.052;2023-05-29T10:57:21;93673.59;;;20.19;100.00
8334;BME280;4204;43.004;23.052;2023-05-29T11:00:02;93665.94;;;20.25;100.00
8334;BME280;4204;43.004;23.052;2023-05-29T11:02:32;93670.03;;;20.08;100.00
8334;BME280;4204;43.004;23.052;2023-05-29T11:05:21;93663.13;;;20.14;100.00
8334;BME280;4204;43.004;23.052;2023-05-29T11:07:55;93666.97;;;20.09;100.00
8334;BME280;4204;43.004;23.052;2023-05-29T11:10:43;93670.03;;;20.08;100.00
8334;BME280;4204;43.004;23.052;2023-05-29T11:13:23;93659.63;;;20.10;100.00
8334;BME280;4204;43.004;23.052;2023-05-29T11:16:11;93647.38;;;20.20;100.00
8334;BME280;4204;43.004;23.052;2023-05-29T11:18:41;93646.31;;;20.35;100.00
8334;BME280;4204;43.004;23.052;2023-05-29T11:21:22;93650.25;;;20.44;100.00
8334;BME280;4204;43.004;23.052;2023-05-29T11:23:51;93654.09;;;20.47;100.00
8334;BME280;4204;43.004;23.052;2023-05-29T11:26:21;93649.53;;;20.54;100.00
8334;BME280;4204;43.004;23.052;2023-05-29T11:28:49;93650.59;;;20.39;100.00
8334;BME280;4204;43.004;23.052;2023-05-29T11:31:17;93639.44;;;20.44;100.00
8334;BME280;4204;43.004;23.052;2023-05-29T11:33:48;93648.78;;;20.61;100.00
8334;BME280;4204;43.004;23.052;2023-05-29T11:36:18;93646.50;;;20.70;100.00
8334;BME280;4204;43.004;23.052;2023-05-29T11:38:46;93649.19;;;20.70;100.00
8334;BME280;4204;43.004;23.052;2023-05-29T11:41:16;93641.09;;;20.73;100.00
8334;BME280;4204;43.004;23.052;2023-05-29T11:43:44;93630.63;;;20.61;100.00
8334;BME280;4204;43.004;23.052;2023-05-29T11:46:23;93630.22;;;20.59;100.00
8334;BME280;4204;43.004;23.052;2023-05-29T11:48:52;93632.91;;;20.56;100.00
8334;BME280;4204;43.004;23.052;2023-05-29T11:51:21;93635.28;;;20.61;100.00
8334;BME280;4204;43.004;23.052;2023-05-29T11:53:50;93617.56;;;20.77;100.00
8334;BME280;4204;43.004;23.052;2023-05-29T11:56:24;93628.50;;;21.06;100.00
8334;BME280;4204;43.004;23.052;2023-05-29T11:58:52;93616.97;;;21.23;100.00
8334;BME280;4204;43.004;23.052;2023-05-29T12:01:23;93611.16;;;21.28;100.00
8334;BME280;4204;43.004;23.052;2023-05-29T12:03:52;93614.28;;;21.58;100.00
8334;BME280;4204;43.004;23.052;2023-05-29T12:06:32;93617.03;;;21.83;100.00
8334;BME280;4204;43.004;23.052;2023-05-29T12:09:00;93616.63;;;21.88;100.00
8334;BME280;4204;43.004;23.052;2023-05-29T12:11:30;93609.28;;;21.88;100.00
8334;BME280;4204;43.004;23.052;2023-05-29T12:13:58;93604.22;;;22.01;100.00
8334;BME280;4204;43.004;23.052;2023-05-29T12:16:27;93593.38;;;22.22;100.00
8334;BME280;4204;43.004;23.052;2023-05-29T12:18:55;93590.97;;;22.41;100.00
8334;BME280;4204;43.004;23.052;2023-05-29T12:21:23;93602.63;;;22.28;100.00
8334;BME280;4204;43.004;23.052;2023-05-29T12:23:53;93586.31;;;22.45;100.00
8334;BME280;4204;43.004;23.052;2023-05-29T12:26:22;93582.78;;;22.55;100.00
8334;BME280;4204;43.004;23.052;2023-05-29T12:28:50;93585.44;;;22.77;100.00
8334;BME280;4204;43.004;23.052;2023-05-29T12:31:27;93581.84;;;22.97;100.00
8334;BME280;4204;43.004;23.052;2023-05-29T12:34:00;93588.38;;;23.10;100.00
8334;BME280;4204;43.004;23.052;2023-05-29T12:36:28;93593.34;;;23.22;100.00
8334;BME280;4204;43.004;23.052;2023-05-29T12:38:58;93595.44;;;22.94;100.00
8334;BME280;4204;43.004;23.052;2023-05-29T12:41:28;93598.56;;;22.89;100.00
8334;BME280;4204;43.004;23.052;2023-05-29T12:43:56;93600.94;;;22.76;100.00
8334;BME280;4204;43.004;23.052;2023-05-29T12:46:25;93600.66;;;22.42;100.00
8334;BME280;4204;43.004;23.052;2023-05-29T12:48:54;93594.47;;;22.42;100.00
8334;BME280;4204;43.004;23.052;2023-05-29T12:51:23;93611.13;;;22.40;100.00
8334;BME280;4204;43.004;23.052;2023-05-29T12:53:51;93610.78;;;22.17;100.00
8334;BME280;4204;43.004;23.052;2023-05-29T12:56:24;93613.88;;;22.19;100.00
8334;BME280;4204;43.004;23.052;2023-05-29T12:58:52;93608.47;;;22.05;100.00
8334;BME280;4204;43.004;23.052;2023-05-29T13:01:20;93617.78;;;21.83;100.00
8334;BME280;4204;43.004;23.052;2023-05-29T13:03:49;93611.97;;;21.63;100.00
8334;BME280;4204;43.004;23.052;2023-05-29T13:06:18;93609.25;;;21.56;100.00
8334;BME280;4204;43.004;23.052;2023-05-29T13:08:45;93610.00;;;21.50;100.00
8334;BME280;4204;43.004;23.052;2023-05-29T13:11:13;93601.47;;;21.23;100.00
8334;BME280;4204;43.004;23.052;2023-05-29T13:13:43;93598.75;;;21.13;100.00
8334;BME280;4204;43.004;23.052;2023-05-29T13:16:11;93605.25;;;20.83;100.00